Decoded Metar for PAMO (MOUNTAIN VILLAGE in AK, USA) (IATA:MOU) | Meteo·Mobile Aviation Weather
aviador You're here:

PAMO Decoded Metar

MOUNTAIN VILLAGE in AK, USA
Report Time2019-01-17 22:57:00
UTC Time2019-01-17 23:14:17
Flight Rules ifr IFR
Wind310° at 05 kt
W.Decomp.*RWY 02: 0.5 kt HW 5 kt LCW
W.Rank310° ranks 13
Current wind is below 310° avg. (10.8)
Visibility2816 m
Phenomena:Light Snow
Mist
Clouds:Overcast 008 Hf
Expected CloudBase > 400 ft AGL from Temp-Dew spread
Ceiling800 ft
Temp-7°C (ISA -21)
Dew Point-8°C (93% RH)
AAT-11.7°C
QNH1010 hPa
Density Alt-2,159 ft
Elevation338 ft
Report Wrong Elevation
Raw Report
PAMO 172257Z AUTO 31005KT 1 3/4SM -SN BR OVC008 M07/M08 A2982 RMK
AO2 P0000 FZRANO=

Extra information for PAMO:More info

Metar Taf Metar & Taf Last 4 Metars F.Rules Stats Wind Profile Meteogram Temp Stats Airport Information Weather charts Add Link Nearby VenuesMetar ALERT Operation Metar Decoded Social comments

AIRNAV info for PAMO